CXI6F DAAG-LIMJ
Flight info
| Callsign | CXI6F |
|---|---|
| Flight time | 1h 28m |
| Altitude | 34000 |
| Route | PECES1D MHN N853 LUMAS UM976 SOSUR DCT STP Y15 MIKRU |
| Aircraft | B738/M-SDE2E3FGHIRWXY/LB1 |
Departure
| Time | 2026-04-21 17:39 |
|---|---|
| Airport | Houari Boumediene Airport (DAAG) |
Arrival
| Time | 2026-04-21 19:07 |
|---|---|
| Airport | Genoa Cristoforo Colombo Airport (LIMJ) |
| Time | Latitude | Longitude | Altitude | Speed | Heading |
|---|---|---|---|---|---|
| 2026-04-21 16:48 | 36.69754 | 3.20460 | 69 ft | 0 kts | 87° |
| 2026-04-21 17:23 | 36.69754 | 3.20446 | 60 ft | 4 kts | 88° |
| 2026-04-21 17:23 | 36.69754 | 3.20413 | 62 ft | 4 kts | 92° |
| 2026-04-21 17:23 | 36.69757 | 3.20380 | 63 ft | 4 kts | 107° |
| 2026-04-21 17:24 | 36.69768 | 3.20354 | 62 ft | 4 kts | 154° |
| 2026-04-21 17:24 | 36.69790 | 3.20348 | 61 ft | 4 kts | 176° |
| 2026-04-21 17:24 | 36.69809 | 3.20347 | 62 ft | 0 kts | 177° |
| 2026-04-21 17:29 | 36.69789 | 3.20349 | 62 ft | 6 kts | 171° |
| 2026-04-21 17:29 | 36.69746 | 3.20359 | 63 ft | 6 kts | 168° |
| 2026-04-21 17:30 | 36.69704 | 3.20371 | 66 ft | 6 kts | 171° |
| 2026-04-21 17:30 | 36.69661 | 3.20372 | 69 ft | 6 kts | 180° |
| 2026-04-21 17:30 | 36.69616 | 3.20370 | 69 ft | 8 kts | 182° |
| 2026-04-21 17:30 | 36.69544 | 3.20367 | 69 ft | 12 kts | 182° |
| 2026-04-21 17:31 | 36.69464 | 3.20352 | 69 ft | 12 kts | 217° |
| 2026-04-21 17:31 | 36.69448 | 3.20258 | 69 ft | 11 kts | 271° |
| 2026-04-21 17:31 | 36.69452 | 3.20162 | 69 ft | 11 kts | 271° |
| 2026-04-21 17:31 | 36.69453 | 3.20068 | 69 ft | 11 kts | 272° |
| 2026-04-21 17:32 | 36.69455 | 3.20008 | 69 ft | 10 kts | 272° |
| 2026-04-21 17:32 | 36.69417 | 3.19905 | 65 ft | 10 kts | 214° |
| 2026-04-21 17:32 | 36.69349 | 3.19896 | 69 ft | 10 kts | 183° |
| 2026-04-21 17:32 | 36.69309 | 3.19842 | 69 ft | 10 kts | 268° |
| 2026-04-21 17:33 | 36.69311 | 3.19742 | 70 ft | 14 kts | 272° |
| 2026-04-21 17:33 | 36.69314 | 3.19602 | 69 ft | 17 kts | 271° |
| 2026-04-21 17:33 | 36.69318 | 3.19457 | 63 ft | 17 kts | 271° |
| 2026-04-21 17:33 | 36.69321 | 3.19314 | 66 ft | 16 kts | 272° |
| 2026-04-21 17:34 | 36.69325 | 3.19178 | 70 ft | 15 kts | 271° |
| 2026-04-21 17:34 | 36.69327 | 3.19047 | 70 ft | 15 kts | 271° |
| 2026-04-21 17:34 | 36.69330 | 3.18918 | 66 ft | 16 kts | 272° |
| 2026-04-21 17:34 | 36.69334 | 3.18750 | 63 ft | 23 kts | 272° |
| 2026-04-21 17:35 | 36.69338 | 3.18529 | 70 ft | 27 kts | 271° |
| 2026-04-21 17:35 | 36.69345 | 3.18297 | 70 ft | 26 kts | 271° |
| 2026-04-21 17:35 | 36.69350 | 3.18081 | 66 ft | 24 kts | 272° |
| 2026-04-21 17:35 | 36.69355 | 3.17878 | 70 ft | 23 kts | 272° |
| 2026-04-21 17:36 | 36.69360 | 3.17684 | 67 ft | 22 kts | 272° |
| 2026-04-21 17:36 | 36.69364 | 3.17495 | 68 ft | 21 kts | 272° |
| 2026-04-21 17:36 | 36.69369 | 3.17312 | 70 ft | 21 kts | 271° |
| 2026-04-21 17:36 | 36.69367 | 3.17148 | 71 ft | 16 kts | 253° |
| 2026-04-21 17:37 | 36.69276 | 3.17100 | 70 ft | 15 kts | 181° |
| 2026-04-21 17:37 | 36.69207 | 3.17135 | 81 ft | 9 kts | 116° |
| 2026-04-21 17:37 | 36.69204 | 3.17154 | 79 ft | 0 kts | 95° |
| 2026-04-21 17:38 | 36.69204 | 3.17156 | 79 ft | 2 kts | 95° |
| 2026-04-21 17:38 | 36.69200 | 3.17316 | 78 ft | 51 kts | 91° |
| 2026-04-21 17:38 | 36.69182 | 3.18065 | 70 ft | 120 kts | 92° |
| 2026-04-21 17:38 | 36.69153 | 3.19350 | 112 ft | 172 kts | 90° |
| 2026-04-21 17:39 | 36.69108 | 3.20819 | 940 ft | 166 kts | 91° |
| 2026-04-21 17:39 | 36.69049 | 3.22285 | 1639 ft | 180 kts | 92° |
| 2026-04-21 17:39 | 36.69307 | 3.23940 | 1938 ft | 212 kts | 59° |
| 2026-04-21 17:39 | 36.70414 | 3.25186 | 2466 ft | 223 kts | 25° |
| 2026-04-21 17:40 | 36.71863 | 3.25868 | 3186 ft | 229 kts | 18° |
| 2026-04-21 17:40 | 36.73415 | 3.26454 | 3822 ft | 243 kts | 15° |
| 2026-04-21 17:40 | 36.75139 | 3.27081 | 4191 ft | 270 kts | 15° |
| 2026-04-21 17:40 | 36.76969 | 3.27749 | 4962 ft | 278 kts | 15° |
| 2026-04-21 17:41 | 36.78844 | 3.28441 | 5792 ft | 283 kts | 15° |
| 2026-04-21 17:41 | 36.80746 | 3.29151 | 6624 ft | 288 kts | 15° |
| 2026-04-21 17:41 | 36.82673 | 3.29877 | 7417 ft | 291 kts | 15° |
| 2026-04-21 17:41 | 36.84644 | 3.30624 | 8226 ft | 294 kts | 15° |
| 2026-04-21 17:42 | 36.86587 | 3.31364 | 9021 ft | 297 kts | 14° |
| 2026-04-21 17:42 | 36.88574 | 3.32124 | 9828 ft | 300 kts | 14° |
| 2026-04-21 17:42 | 36.90598 | 3.32899 | 10377 ft | 313 kts | 14° |
| 2026-04-21 17:42 | 36.92760 | 3.33727 | 10556 ft | 337 kts | 14° |
| 2026-04-21 17:43 | 36.95078 | 3.34615 | 10731 ft | 360 kts | 14° |
| 2026-04-21 17:43 | 36.97539 | 3.35561 | 10895 ft | 381 kts | 15° |
| 2026-04-21 17:43 | 37.00134 | 3.36562 | 11053 ft | 399 kts | 15° |
| 2026-04-21 17:43 | 37.02822 | 3.37603 | 11453 ft | 408 kts | 15° |
| 2026-04-21 17:44 | 37.05543 | 3.38659 | 12049 ft | 411 kts | 15° |
| 2026-04-21 17:44 | 37.08276 | 3.39722 | 12703 ft | 412 kts | 15° |
| 2026-04-21 17:44 | 37.11021 | 3.40789 | 13329 ft | 414 kts | 15° |
| 2026-04-21 17:44 | 37.13783 | 3.41863 | 13884 ft | 417 kts | 15° |
| 2026-04-21 17:45 | 37.16568 | 3.42945 | 14401 ft | 420 kts | 15° |
| 2026-04-21 17:45 | 37.19373 | 3.44035 | 14917 ft | 424 kts | 14° |
| 2026-04-21 17:45 | 37.22196 | 3.45133 | 15449 ft | 426 kts | 14° |
| 2026-04-21 17:45 | 37.25039 | 3.46240 | 15961 ft | 429 kts | 14° |
| 2026-04-21 17:46 | 37.27899 | 3.47354 | 16467 ft | 432 kts | 14° |
| 2026-04-21 17:46 | 37.30782 | 3.48478 | 16967 ft | 435 kts | 14° |
| 2026-04-21 17:46 | 37.33678 | 3.49607 | 17455 ft | 438 kts | 14° |
| 2026-04-21 17:46 | 37.36598 | 3.50747 | 17938 ft | 441 kts | 14° |
| 2026-04-21 17:47 | 37.39538 | 3.51896 | 18377 ft | 444 kts | 14° |
| 2026-04-21 17:47 | 37.42499 | 3.53053 | 18795 ft | 446 kts | 14° |
| 2026-04-21 17:47 | 37.45470 | 3.54216 | 19208 ft | 449 kts | 14° |
| 2026-04-21 17:47 | 37.48463 | 3.55389 | 19615 ft | 452 kts | 14° |
| 2026-04-21 17:48 | 37.50494 | 3.56185 | 19890 ft | 453 kts | 14° |
| 2026-04-21 17:48 | 37.54500 | 3.57757 | 20427 ft | 457 kts | 14° |
| 2026-04-21 17:48 | 37.57542 | 3.58952 | 20820 ft | 459 kts | 14° |
| 2026-04-21 17:48 | 37.60600 | 3.60154 | 21211 ft | 462 kts | 14° |
| 2026-04-21 17:49 | 37.63678 | 3.61365 | 21578 ft | 465 kts | 14° |
| 2026-04-21 17:49 | 37.66774 | 3.62583 | 21937 ft | 467 kts | 14° |
| 2026-04-21 17:49 | 37.69885 | 3.63810 | 22285 ft | 470 kts | 14° |
| 2026-04-21 17:49 | 37.73013 | 3.65040 | 22632 ft | 472 kts | 14° |
| 2026-04-21 17:50 | 37.76162 | 3.66277 | 22967 ft | 475 kts | 14° |
| 2026-04-21 17:50 | 37.79324 | 3.67522 | 23296 ft | 477 kts | 14° |
| 2026-04-21 17:50 | 37.82455 | 3.68757 | 23590 ft | 479 kts | 14° |
| 2026-04-21 17:50 | 37.85644 | 3.70019 | 23875 ft | 481 kts | 14° |
| 2026-04-21 17:51 | 37.88843 | 3.71287 | 24155 ft | 482 kts | 14° |
| 2026-04-21 17:51 | 37.92051 | 3.72560 | 24422 ft | 484 kts | 14° |
| 2026-04-21 17:51 | 37.95272 | 3.73840 | 24692 ft | 486 kts | 14° |
| 2026-04-21 17:51 | 37.98503 | 3.75125 | 24971 ft | 487 kts | 14° |
| 2026-04-21 17:52 | 38.01740 | 3.76414 | 25232 ft | 489 kts | 14° |
| 2026-04-21 17:52 | 38.04990 | 3.77709 | 25517 ft | 489 kts | 14° |
| 2026-04-21 17:52 | 38.08232 | 3.79002 | 25892 ft | 488 kts | 14° |
| 2026-04-21 17:52 | 38.11463 | 3.80293 | 26317 ft | 485 kts | 14° |
| 2026-04-21 17:53 | 38.13593 | 3.81145 | 26606 ft | 484 kts | 14° |
| 2026-04-21 17:53 | 38.16803 | 3.82428 | 26985 ft | 483 kts | 14° |
| 2026-04-21 17:53 | 38.20012 | 3.83712 | 27318 ft | 484 kts | 14° |
| 2026-04-21 17:53 | 38.23220 | 3.84996 | 27691 ft | 483 kts | 14° |
| 2026-04-21 17:54 | 38.26418 | 3.86278 | 28112 ft | 481 kts | 13° |
| 2026-04-21 17:54 | 38.29603 | 3.87556 | 28553 ft | 479 kts | 13° |
| 2026-04-21 17:54 | 38.32777 | 3.88831 | 28979 ft | 478 kts | 13° |
| 2026-04-21 17:54 | 38.35942 | 3.90103 | 29378 ft | 477 kts | 13° |
| 2026-04-21 17:55 | 38.39100 | 3.91374 | 29789 ft | 475 kts | 13° |
| 2026-04-21 17:55 | 38.42254 | 3.92643 | 30156 ft | 474 kts | 13° |
| 2026-04-21 17:55 | 38.45397 | 3.93910 | 30471 ft | 474 kts | 13° |
| 2026-04-21 17:55 | 38.48555 | 3.95112 | 30782 ft | 471 kts | 9° |
| 2026-04-21 17:56 | 38.51758 | 3.95883 | 31082 ft | 467 kts | 4° |
| 2026-04-21 17:56 | 38.54971 | 3.96483 | 31416 ft | 466 kts | 3° |
| 2026-04-21 17:56 | 38.58177 | 3.97035 | 31740 ft | 464 kts | 3° |
| 2026-04-21 17:56 | 38.61377 | 3.97581 | 32052 ft | 464 kts | 3° |
| 2026-04-21 17:57 | 38.64575 | 3.98141 | 32373 ft | 463 kts | 3° |
| 2026-04-21 17:57 | 38.67763 | 3.98717 | 32677 ft | 462 kts | 3° |
| 2026-04-21 17:57 | 38.70948 | 3.99308 | 32982 ft | 462 kts | 4° |
| 2026-04-21 17:57 | 38.74123 | 3.99906 | 33307 ft | 461 kts | 4° |
| 2026-04-21 17:58 | 38.77291 | 4.00509 | 33625 ft | 459 kts | 4° |
| 2026-04-21 17:58 | 38.80449 | 4.01112 | 33935 ft | 458 kts | 4° |
| 2026-04-21 17:58 | 38.83605 | 4.01715 | 34190 ft | 458 kts | 4° |
| 2026-04-21 17:58 | 38.86753 | 4.02317 | 34420 ft | 457 kts | 3° |
| 2026-04-21 17:59 | 38.89899 | 4.02917 | 34630 ft | 457 kts | 3° |
| 2026-04-21 17:59 | 38.93049 | 4.03519 | 34843 ft | 457 kts | 3° |
| 2026-04-21 17:59 | 38.96192 | 4.04120 | 35069 ft | 457 kts | 3° |
| 2026-04-21 17:59 | 38.99336 | 4.04722 | 35291 ft | 456 kts | 3° |
| 2026-04-21 18:00 | 39.02482 | 4.05324 | 35490 ft | 457 kts | 3° |
| 2026-04-21 18:00 | 39.05622 | 4.05925 | 35698 ft | 456 kts | 3° |
| 2026-04-21 18:00 | 39.08763 | 4.06528 | 35914 ft | 456 kts | 3° |
| 2026-04-21 18:00 | 39.11900 | 4.07131 | 36109 ft | 456 kts | 3° |
| 2026-04-21 18:01 | 39.15037 | 4.07733 | 36291 ft | 456 kts | 3° |
| 2026-04-21 18:01 | 39.18180 | 4.08338 | 36485 ft | 456 kts | 3° |
| 2026-04-21 18:01 | 39.21318 | 4.08942 | 36691 ft | 455 kts | 3° |
| 2026-04-21 18:01 | 39.24452 | 4.09546 | 36874 ft | 455 kts | 3° |
| 2026-04-21 18:02 | 39.30748 | 4.10760 | 36924 ft | 458 kts | 4° |
| 2026-04-21 18:02 | 39.37040 | 4.11978 | 36926 ft | 456 kts | 4° |
| 2026-04-21 18:03 | 39.43297 | 4.13191 | 36932 ft | 454 kts | 4° |
| 2026-04-21 18:03 | 39.49526 | 4.14400 | 36929 ft | 452 kts | 4° |
| 2026-04-21 18:04 | 39.55740 | 4.15607 | 36933 ft | 451 kts | 4° |
| 2026-04-21 18:04 | 39.61946 | 4.16815 | 36938 ft | 451 kts | 4° |
| 2026-04-21 18:05 | 39.68151 | 4.18026 | 36941 ft | 451 kts | 4° |
| 2026-04-21 18:05 | 39.74361 | 4.19239 | 36941 ft | 452 kts | 4° |
| 2026-04-21 18:06 | 39.80582 | 4.20458 | 36942 ft | 453 kts | 4° |
| 2026-04-21 18:06 | 39.86819 | 4.21683 | 36951 ft | 454 kts | 4° |
| 2026-04-21 18:07 | 39.93062 | 4.23095 | 36945 ft | 456 kts | 6° |
| 2026-04-21 18:07 | 39.99309 | 4.24611 | 36941 ft | 457 kts | 6° |
| 2026-04-21 18:08 | 40.05568 | 4.26116 | 36935 ft | 457 kts | 6° |
| 2026-04-21 18:08 | 40.11823 | 4.27602 | 36930 ft | 457 kts | 6° |
| 2026-04-21 18:09 | 40.18074 | 4.29084 | 36928 ft | 456 kts | 6° |
| 2026-04-21 18:09 | 40.24320 | 4.30567 | 36925 ft | 456 kts | 6° |
| 2026-04-21 18:10 | 40.30554 | 4.32051 | 36926 ft | 455 kts | 6° |
| 2026-04-21 18:10 | 40.36786 | 4.33538 | 36925 ft | 455 kts | 6° |
| 2026-04-21 18:11 | 40.43011 | 4.35026 | 36926 ft | 455 kts | 6° |
| 2026-04-21 18:11 | 40.49196 | 4.36506 | 36928 ft | 454 kts | 6° |
| 2026-04-21 18:12 | 40.55414 | 4.37986 | 36927 ft | 454 kts | 5° |
| 2026-04-21 18:12 | 40.61627 | 4.39456 | 36922 ft | 453 kts | 5° |
| 2026-04-21 18:13 | 40.67874 | 4.40938 | 36932 ft | 453 kts | 6° |
| 2026-04-21 18:13 | 40.74076 | 4.42414 | 36925 ft | 453 kts | 6° |
| 2026-04-21 18:14 | 40.83371 | 4.44633 | 36925 ft | 452 kts | 6° |
| 2026-04-21 18:15 | 40.89560 | 4.46113 | 36923 ft | 452 kts | 6° |
| 2026-04-21 18:15 | 40.95746 | 4.47618 | 36923 ft | 452 kts | 6° |
| 2026-04-21 18:16 | 41.01931 | 4.49135 | 36925 ft | 452 kts | 6° |
| 2026-04-21 18:16 | 41.08111 | 4.50649 | 36925 ft | 452 kts | 6° |
| 2026-04-21 18:17 | 41.14294 | 4.52158 | 36922 ft | 452 kts | 6° |
| 2026-04-21 18:17 | 41.20476 | 4.53667 | 36917 ft | 452 kts | 6° |
| 2026-04-21 18:18 | 41.26659 | 4.55180 | 36921 ft | 452 kts | 6° |
| 2026-04-21 18:18 | 41.32844 | 4.56698 | 36922 ft | 452 kts | 6° |
| 2026-04-21 18:19 | 41.39030 | 4.58219 | 36919 ft | 452 kts | 6° |
| 2026-04-21 18:19 | 41.45213 | 4.59742 | 36921 ft | 452 kts | 6° |
| 2026-04-21 18:20 | 41.51407 | 4.61271 | 36917 ft | 452 kts | 6° |
| 2026-04-21 18:20 | 41.57596 | 4.62802 | 36919 ft | 452 kts | 6° |
| 2026-04-21 18:21 | 41.63743 | 4.64325 | 36914 ft | 452 kts | 6° |
| 2026-04-21 18:21 | 41.69931 | 4.65861 | 36914 ft | 452 kts | 6° |
| 2026-04-21 18:22 | 41.76091 | 4.67624 | 36916 ft | 454 kts | 11° |
| 2026-04-21 18:22 | 41.82171 | 4.70043 | 36918 ft | 455 kts | 12° |
| 2026-04-21 18:23 | 41.88224 | 4.72542 | 36917 ft | 455 kts | 12° |
| 2026-04-21 18:23 | 41.94287 | 4.74987 | 36913 ft | 454 kts | 12° |
| 2026-04-21 18:24 | 42.00348 | 4.77397 | 36910 ft | 454 kts | 12° |
| 2026-04-21 18:24 | 42.06408 | 4.79803 | 36911 ft | 454 kts | 12° |
| 2026-04-21 18:25 | 42.12461 | 4.82212 | 36907 ft | 454 kts | 12° |
| 2026-04-21 18:25 | 42.18514 | 4.84627 | 36905 ft | 453 kts | 12° |
| 2026-04-21 18:26 | 42.24560 | 4.87045 | 36915 ft | 453 kts | 12° |
| 2026-04-21 18:26 | 42.30584 | 4.89460 | 36905 ft | 453 kts | 12° |
| 2026-04-21 18:27 | 42.36621 | 4.91884 | 36912 ft | 452 kts | 12° |
| 2026-04-21 18:27 | 42.42655 | 4.94312 | 36912 ft | 452 kts | 12° |
| 2026-04-21 18:28 | 42.48049 | 4.96486 | 36909 ft | 452 kts | 12° |
| 2026-04-21 18:28 | 42.53992 | 4.99335 | 36892 ft | 460 kts | 26° |
| 2026-04-21 18:28 | 42.56567 | 5.01958 | 36912 ft | 468 kts | 40° |
| 2026-04-21 18:29 | 42.58625 | 5.05428 | 36905 ft | 476 kts | 56° |
| 2026-04-21 18:29 | 42.61878 | 5.13267 | 36906 ft | 478 kts | 58° |
| 2026-04-21 18:30 | 42.65083 | 5.21186 | 36902 ft | 478 kts | 57° |
| 2026-04-21 18:30 | 42.68338 | 5.29084 | 36907 ft | 479 kts | 57° |
| 2026-04-21 18:31 | 42.71623 | 5.36970 | 36907 ft | 479 kts | 56° |
| 2026-04-21 18:31 | 42.74916 | 5.44872 | 36915 ft | 480 kts | 56° |
| 2026-04-21 18:32 | 42.78202 | 5.52781 | 36910 ft | 481 kts | 56° |
| 2026-04-21 18:32 | 42.81468 | 5.60673 | 36913 ft | 482 kts | 56° |
| 2026-04-21 18:33 | 42.84773 | 5.68681 | 36915 ft | 482 kts | 56° |
| 2026-04-21 18:33 | 42.88037 | 5.76611 | 36918 ft | 483 kts | 56° |
| 2026-04-21 18:34 | 42.91317 | 5.84601 | 36918 ft | 483 kts | 56° |
| 2026-04-21 18:34 | 42.94597 | 5.92611 | 36916 ft | 483 kts | 56° |
| 2026-04-21 18:35 | 42.97337 | 5.99323 | 36916 ft | 483 kts | 56° |
| 2026-04-21 18:35 | 43.00607 | 6.07355 | 36914 ft | 483 kts | 56° |
| 2026-04-21 18:36 | 43.03851 | 6.15343 | 36916 ft | 483 kts | 56° |
| 2026-04-21 18:36 | 43.07111 | 6.23393 | 36909 ft | 484 kts | 56° |
| 2026-04-21 18:37 | 43.10362 | 6.31441 | 36914 ft | 483 kts | 56° |
| 2026-04-21 18:37 | 43.13612 | 6.39511 | 36917 ft | 483 kts | 56° |
| 2026-04-21 18:38 | 43.16846 | 6.47565 | 36902 ft | 483 kts | 56° |
| 2026-04-21 18:38 | 43.19939 | 6.55289 | 36905 ft | 482 kts | 56° |
| 2026-04-21 18:39 | 43.23332 | 6.63200 | 36902 ft | 478 kts | 50° |
| 2026-04-21 18:39 | 43.27266 | 6.70513 | 36911 ft | 476 kts | 47° |
| 2026-04-21 18:40 | 43.31235 | 6.77806 | 36922 ft | 477 kts | 48° |
| 2026-04-21 18:40 | 43.34482 | 6.83936 | 36921 ft | 477 kts | 49° |
| 2026-04-21 18:41 | 43.39032 | 6.92580 | 36921 ft | 478 kts | 49° |
| 2026-04-21 18:41 | 43.42936 | 6.99970 | 36925 ft | 478 kts | 49° |
| 2026-04-21 18:42 | 43.46839 | 7.07375 | 36913 ft | 478 kts | 49° |
| 2026-04-21 18:42 | 43.50698 | 7.14768 | 36918 ft | 479 kts | 49° |
| 2026-04-21 18:43 | 43.54555 | 7.22247 | 36921 ft | 479 kts | 49° |
| 2026-04-21 18:43 | 43.58421 | 7.29750 | 36680 ft | 483 kts | 49° |
| 2026-04-21 18:43 | 43.60365 | 7.33526 | 36426 ft | 481 kts | 49° |
| 2026-04-21 18:44 | 43.62248 | 7.37330 | 35985 ft | 481 kts | 53° |
| 2026-04-21 18:44 | 43.63772 | 7.41480 | 35384 ft | 487 kts | 61° |
| 2026-04-21 18:44 | 43.65109 | 7.45779 | 34736 ft | 488 kts | 61° |
| 2026-04-21 18:44 | 43.66461 | 7.50085 | 34079 ft | 489 kts | 60° |
| 2026-04-21 18:45 | 43.67933 | 7.54321 | 33293 ft | 487 kts | 54° |
| 2026-04-21 18:45 | 43.69791 | 7.58175 | 32582 ft | 478 kts | 45° |
| 2026-04-21 18:45 | 43.71840 | 7.61785 | 31880 ft | 477 kts | 44° |
| 2026-04-21 18:45 | 43.73913 | 7.65370 | 31126 ft | 478 kts | 44° |
| 2026-04-21 18:46 | 43.75987 | 7.68962 | 30401 ft | 478 kts | 45° |
| 2026-04-21 18:46 | 43.78052 | 7.72575 | 29580 ft | 479 kts | 45° |
| 2026-04-21 18:46 | 43.80112 | 7.76213 | 28693 ft | 479 kts | 45° |
| 2026-04-21 18:46 | 43.82155 | 7.79852 | 27831 ft | 479 kts | 46° |
| 2026-04-21 18:47 | 43.84190 | 7.83495 | 27030 ft | 477 kts | 46° |
| 2026-04-21 18:47 | 43.86201 | 7.87105 | 26427 ft | 471 kts | 46° |
| 2026-04-21 18:47 | 43.88191 | 7.90683 | 25802 ft | 467 kts | 46° |
| 2026-04-21 18:47 | 43.90166 | 7.94235 | 25186 ft | 463 kts | 46° |
| 2026-04-21 18:48 | 43.92123 | 7.97753 | 24580 ft | 459 kts | 47° |
| 2026-04-21 18:48 | 43.94065 | 8.01247 | 23980 ft | 456 kts | 47° |
| 2026-04-21 18:48 | 43.95993 | 8.04720 | 23340 ft | 453 kts | 47° |
| 2026-04-21 18:48 | 43.97914 | 8.08184 | 22642 ft | 450 kts | 47° |
| 2026-04-21 18:49 | 43.99814 | 8.11616 | 22008 ft | 446 kts | 47° |
| 2026-04-21 18:49 | 44.01694 | 8.15016 | 21403 ft | 441 kts | 47° |
| 2026-04-21 18:49 | 44.02924 | 8.17243 | 21003 ft | 438 kts | 47° |
| 2026-04-21 18:49 | 44.05324 | 8.21782 | 20203 ft | 437 kts | 54° |
| 2026-04-21 18:50 | 44.06442 | 8.25747 | 19623 ft | 445 kts | 71° |
| 2026-04-21 18:50 | 44.07167 | 8.29917 | 19047 ft | 442 kts | 72° |
| 2026-04-21 18:50 | 44.07882 | 8.34061 | 18446 ft | 440 kts | 72° |
| 2026-04-21 18:50 | 44.08613 | 8.38182 | 17796 ft | 438 kts | 71° |
| 2026-04-21 18:51 | 44.09357 | 8.42269 | 17157 ft | 434 kts | 71° |
| 2026-04-21 18:51 | 44.10108 | 8.46331 | 16552 ft | 431 kts | 71° |
| 2026-04-21 18:51 | 44.10851 | 8.50347 | 15963 ft | 427 kts | 71° |
| 2026-04-21 18:51 | 44.11588 | 8.54336 | 15392 ft | 423 kts | 72° |
| 2026-04-21 18:52 | 44.12313 | 8.58278 | 14814 ft | 420 kts | 72° |
| 2026-04-21 18:52 | 44.13034 | 8.62204 | 14246 ft | 416 kts | 72° |
| 2026-04-21 18:52 | 44.13747 | 8.66093 | 13677 ft | 413 kts | 72° |
| 2026-04-21 18:52 | 44.14455 | 8.69959 | 13041 ft | 410 kts | 72° |
| 2026-04-21 18:53 | 44.15153 | 8.73785 | 12639 ft | 401 kts | 73° |
| 2026-04-21 18:53 | 44.15822 | 8.77474 | 12495 ft | 386 kts | 73° |
| 2026-04-21 18:53 | 44.16460 | 8.80993 | 12325 ft | 374 kts | 73° |
| 2026-04-21 18:53 | 44.17087 | 8.84451 | 12169 ft | 362 kts | 73° |
| 2026-04-21 18:54 | 44.17694 | 8.87796 | 12018 ft | 351 kts | 73° |
| 2026-04-21 18:54 | 44.18283 | 8.91048 | 11890 ft | 340 kts | 73° |
| 2026-04-21 18:54 | 44.18848 | 8.94184 | 11819 ft | 328 kts | 73° |
| 2026-04-21 18:54 | 44.19396 | 8.97227 | 11683 ft | 319 kts | 73° |
| 2026-04-21 18:55 | 44.19752 | 8.99201 | 11595 ft | 314 kts | 73° |
| 2026-04-21 18:55 | 44.20450 | 9.03083 | 11420 ft | 303 kts | 73° |
| 2026-04-21 18:55 | 44.20953 | 9.05891 | 11299 ft | 295 kts | 73° |
| 2026-04-21 18:55 | 44.21442 | 9.08626 | 11178 ft | 287 kts | 73° |
| 2026-04-21 18:56 | 44.21744 | 9.11337 | 11028 ft | 282 kts | 92° |
| 2026-04-21 18:56 | 44.21217 | 9.13900 | 10927 ft | 274 kts | 120° |
| 2026-04-21 18:56 | 44.20030 | 9.15917 | 10755 ft | 267 kts | 142° |
| 2026-04-21 18:56 | 44.18569 | 9.17479 | 10604 ft | 264 kts | 146° |
| 2026-04-21 18:57 | 44.17120 | 9.18984 | 10422 ft | 262 kts | 145° |
| 2026-04-21 18:57 | 44.15663 | 9.20497 | 10165 ft | 261 kts | 145° |
| 2026-04-21 18:57 | 44.14393 | 9.22288 | 9891 ft | 263 kts | 120° |
| 2026-04-21 18:57 | 44.13879 | 9.24689 | 9633 ft | 258 kts | 89° |
| 2026-04-21 18:58 | 44.14250 | 9.27071 | 9293 ft | 251 kts | 58° |
| 2026-04-21 18:58 | 44.15369 | 9.28859 | 8924 ft | 243 kts | 30° |
| 2026-04-21 18:58 | 44.16897 | 9.29702 | 8554 ft | 235 kts | 5° |
| 2026-04-21 18:58 | 44.18507 | 9.29641 | 8167 ft | 230 kts | 343° |
| 2026-04-21 18:59 | 44.20029 | 9.28949 | 7846 ft | 230 kts | 337° |
| 2026-04-21 18:59 | 44.21519 | 9.28144 | 7610 ft | 229 kts | 337° |
| 2026-04-21 18:59 | 44.23007 | 9.27339 | 7360 ft | 228 kts | 338° |
| 2026-04-21 18:59 | 44.24467 | 9.26561 | 7164 ft | 222 kts | 338° |
| 2026-04-21 19:00 | 44.25904 | 9.25801 | 6866 ft | 220 kts | 338° |
| 2026-04-21 19:00 | 44.27329 | 9.25050 | 6548 ft | 218 kts | 338° |
| 2026-04-21 19:00 | 44.28719 | 9.24211 | 6218 ft | 217 kts | 327° |
| 2026-04-21 19:00 | 44.29928 | 9.22986 | 5946 ft | 213 kts | 322° |
| 2026-04-21 19:01 | 44.31095 | 9.21710 | 5679 ft | 213 kts | 322° |
| 2026-04-21 19:01 | 44.32251 | 9.20456 | 5422 ft | 213 kts | 322° |
| 2026-04-21 19:01 | 44.33304 | 9.19001 | 5101 ft | 216 kts | 298° |
| 2026-04-21 19:01 | 44.33905 | 9.17098 | 4851 ft | 215 kts | 294° |
| 2026-04-21 19:02 | 44.34462 | 9.15163 | 4549 ft | 214 kts | 290° |
| 2026-04-21 19:02 | 44.34935 | 9.13195 | 4235 ft | 213 kts | 288° |
| 2026-04-21 19:02 | 44.35367 | 9.11234 | 3927 ft | 209 kts | 287° |
| 2026-04-21 19:02 | 44.35782 | 9.09312 | 3638 ft | 205 kts | 287° |
| 2026-04-21 19:03 | 44.36189 | 9.07425 | 3370 ft | 201 kts | 287° |
| 2026-04-21 19:03 | 44.36592 | 9.05564 | 3076 ft | 198 kts | 287° |
| 2026-04-21 19:03 | 44.36988 | 9.03731 | 2797 ft | 196 kts | 287° |
| 2026-04-21 19:03 | 44.37381 | 9.01922 | 2527 ft | 193 kts | 287° |
| 2026-04-21 19:04 | 44.37768 | 9.00136 | 2254 ft | 191 kts | 287° |
| 2026-04-21 19:04 | 44.38144 | 8.98404 | 1994 ft | 181 kts | 287° |
| 2026-04-21 19:04 | 44.38495 | 8.96792 | 1753 ft | 166 kts | 287° |
| 2026-04-21 19:04 | 44.38823 | 8.95299 | 1454 ft | 157 kts | 287° |
| 2026-04-21 19:05 | 44.39169 | 8.93851 | 1188 ft | 156 kts | 289° |
| 2026-04-21 19:05 | 44.39539 | 8.92425 | 943 ft | 157 kts | 288° |
| 2026-04-21 19:05 | 44.39859 | 8.90961 | 695 ft | 158 kts | 286° |
| 2026-04-21 19:05 | 44.40157 | 8.89492 | 504 ft | 156 kts | 284° |
| 2026-04-21 19:06 | 44.40442 | 8.88040 | 329 ft | 155 kts | 285° |
| 2026-04-21 19:06 | 44.40729 | 8.86569 | 164 ft | 157 kts | 284° |
| 2026-04-21 19:06 | 44.41016 | 8.85102 | 21 ft | 152 kts | 285° |
| 2026-04-21 19:06 | 44.41263 | 8.83837 | 19 ft | 113 kts | 285° |
| 2026-04-21 19:07 | 44.41371 | 8.83288 | 20 ft | 30 kts | 286° |
| 2026-04-21 19:07 | 44.41454 | 8.83115 | 20 ft | 16 kts | 318° |
| 2026-04-21 19:07 | 44.41536 | 8.83116 | 20 ft | 13 kts | 47° |
| 2026-04-21 19:07 | 44.41535 | 8.83231 | 19 ft | 12 kts | 105° |
| 2026-04-21 19:08 | 44.41512 | 8.83349 | 19 ft | 13 kts | 105° |
| 2026-04-21 19:08 | 44.41486 | 8.83481 | 19 ft | 15 kts | 105° |
| 2026-04-21 19:08 | 44.41458 | 8.83625 | 19 ft | 16 kts | 105° |
| 2026-04-21 19:08 | 44.41427 | 8.83782 | 20 ft | 17 kts | 105° |
| 2026-04-21 19:09 | 44.41395 | 8.83945 | 19 ft | 17 kts | 105° |
| 2026-04-21 19:09 | 44.41364 | 8.84105 | 19 ft | 16 kts | 105° |
| 2026-04-21 19:09 | 44.41339 | 8.84234 | 19 ft | 8 kts | 105° |
| 2026-04-21 19:09 | 44.41335 | 8.84253 | 19 ft | 0 kts | 105° |
| 2026-04-21 19:10 | 44.41335 | 8.84254 | 19 ft | 0 kts | 105° |
| 2026-04-21 19:10 | 44.41333 | 8.84265 | 19 ft | 3 kts | 105° |
| 2026-04-21 19:10 | 44.41324 | 8.84311 | 20 ft | 7 kts | 105° |
| 2026-04-21 19:11 | 44.41314 | 8.84394 | 19 ft | 9 kts | 77° |
| 2026-04-21 19:11 | 44.41349 | 8.84470 | 19 ft | 9 kts | 53° |
| 2026-04-21 19:11 | 44.41392 | 8.84546 | 19 ft | 11 kts | 52° |
| 2026-04-21 19:11 | 44.41410 | 8.84644 | 19 ft | 11 kts | 103° |
| 2026-04-21 19:12 | 44.41397 | 8.84711 | 21 ft | 11 kts | 105° |
| 2026-04-21 19:12 | 44.41372 | 8.84842 | 19 ft | 10 kts | 105° |
| 2026-04-21 19:12 | 44.41355 | 8.84935 | 20 ft | 10 kts | 104° |
| 2026-04-21 19:12 | 44.41339 | 8.85028 | 19 ft | 10 kts | 104° |
| 2026-04-21 19:13 | 44.41324 | 8.85111 | 20 ft | 5 kts | 97° |
| 2026-04-21 19:13 | 44.41338 | 8.85137 | 19 ft | 1 kts | 37° |
| 2026-04-21 19:13 | 44.41345 | 8.85145 | 19 ft | 1 kts | 44° |
| 2026-04-21 19:13 | 44.41349 | 8.85174 | 19 ft | 4 kts | 90° |
| 2026-04-21 19:14 | 44.41357 | 8.85201 | 19 ft | 3 kts | 42° |
| 2026-04-21 19:14 | 44.41368 | 8.85208 | 20 ft | 0 kts | 19° |
| 2026-04-21 19:14 | 44.41372 | 8.85209 | 19 ft | 1 kts | 16° |
| 2026-04-21 19:14 | 44.41374 | 8.85210 | 19 ft | 0 kts | 16° |